sensor_id;sensor_type;location;lat;lon;timestamp;P1;durP1;ratioP1;P2;durP2;ratioP2
2756;SDS011;1386;50.862;6.494;2023-11-19T00:01:25;1.00;;;0.90;;
2756;SDS011;1386;50.862;6.494;2023-11-19T00:03:54;1.20;;;0.90;;
2756;SDS011;1386;50.862;6.494;2023-11-19T00:06:21;1.80;;;1.10;;
2756;SDS011;1386;50.862;6.494;2023-11-19T00:08:48;1.27;;;1.17;;
2756;SDS011;1386;50.862;6.494;2023-11-19T00:11:17;1.37;;;1.00;;
2756;SDS011;1386;50.862;6.494;2023-11-19T00:13:44;1.00;;;0.90;;
2756;SDS011;1386;50.862;6.494;2023-11-19T00:16:11;1.70;;;1.20;;
2756;SDS011;1386;50.862;6.494;2023-11-19T03:32:09;9.17;;;2.47;;
2756;SDS011;1386;50.862;6.494;2023-11-19T07:25:25;13.30;;;3.53;;
2756;SDS011;1386;50.862;6.494;2023-11-19T07:27:52;16.87;;;4.17;;
2756;SDS011;1386;50.862;6.494;2023-11-19T07:30:35;22.33;;;4.90;;
2756;SDS011;1386;50.862;6.494;2023-11-19T07:33:17;16.73;;;3.90;;
2756;SDS011;1386;50.862;6.494;2023-11-19T07:35:44;11.70;;;3.70;;
2756;SDS011;1386;50.862;6.494;2023-11-19T07:38:11;14.60;;;4.13;;
2756;SDS011;1386;50.862;6.494;2023-11-19T09:04:01;14.27;;;3.93;;
2756;SDS011;1386;50.862;6.494;2023-11-19T09:06:29;13.60;;;4.27;;
2756;SDS011;1386;50.862;6.494;2023-11-19T09:08:56;17.13;;;4.57;;
2756;SDS011;1386;50.862;6.494;2023-11-19T09:11:27;22.13;;;5.00;;
2756;SDS011;1386;50.862;6.494;2023-11-19T09:13:54;21.97;;;4.30;;
2756;SDS011;1386;50.862;6.494;2023-11-19T09:16:21;21.80;;;4.27;;
2756;SDS011;1386;50.862;6.494;2023-11-19T09:18:48;18.10;;;4.30;;
2756;SDS011;1386;50.862;6.494;2023-11-19T09:21:27;22.40;;;5.87;;
2756;SDS011;1386;50.862;6.494;2023-11-19T09:23:57;15.87;;;4.33;;
2756;SDS011;1386;50.862;6.494;2023-11-19T09:26:25;12.50;;;3.47;;
2756;SDS011;1386;50.862;6.494;2023-11-19T09:28:56;22.47;;;5.03;;
2756;SDS011;1386;50.862;6.494;2023-11-19T09:31:26;17.60;;;4.50;;
2756;SDS011;1386;50.862;6.494;2023-11-19T09:33:53;11.03;;;3.30;;
2756;SDS011;1386;50.862;6.494;2023-11-19T09:36:34;17.47;;;4.17;;
2756;SDS011;1386;50.862;6.494;2023-11-19T09:39:05;21.93;;;4.90;;
2756;SDS011;1386;50.862;6.494;2023-11-19T09:41:35;20.27;;;5.83;;
2756;SDS011;1386;50.862;6.494;2023-11-19T09:44:01;22.03;;;4.43;;
2756;SDS011;1386;50.862;6.494;2023-11-19T09:46:32;14.63;;;3.70;;
2756;SDS011;1386;50.862;6.494;2023-11-19T09:48:59;12.43;;;4.20;;
2756;SDS011;1386;50.862;6.494;2023-11-19T09:51:32;17.60;;;4.37;;
2756;SDS011;1386;50.862;6.494;2023-11-19T09:54:01;15.93;;;4.03;;
2756;SDS011;1386;50.862;6.494;2023-11-19T09:56:29;16.90;;;4.70;;
2756;SDS011;1386;50.862;6.494;2023-11-19T09:58:59;14.23;;;3.77;;
2756;SDS011;1386;50.862;6.494;2023-11-19T10:01:35;16.73;;;4.00;;
2756;SDS011;1386;50.862;6.494;2023-11-19T10:04:03;21.13;;;3.73;;
2756;SDS011;1386;50.862;6.494;2023-11-19T10:06:31;14.53;;;4.17;;
2756;SDS011;1386;50.862;6.494;2023-11-19T10:09:02;14.53;;;3.97;;
2756;SDS011;1386;50.862;6.494;2023-11-19T10:11:33;10.67;;;3.80;;
2756;SDS011;1386;50.862;6.494;2023-11-19T10:14:03;16.60;;;4.57;;
2756;SDS011;1386;50.862;6.494;2023-11-19T10:16:30;15.17;;;3.93;;
2756;SDS011;1386;50.862;6.494;2023-11-19T10:19:00;16.57;;;4.07;;
2756;SDS011;1386;50.862;6.494;2023-11-19T10:21:28;28.20;;;6.17;;
2756;SDS011;1386;50.862;6.494;2023-11-19T10:23:59;13.03;;;4.03;;
2756;SDS011;1386;50.862;6.494;2023-11-19T10:26:31;10.77;;;3.70;;
2756;SDS011;1386;50.862;6.494;2023-11-19T10:28:59;23.83;;;4.97;;
2756;SDS011;1386;50.862;6.494;2023-11-19T10:31:26;16.67;;;4.03;;
2756;SDS011;1386;50.862;6.494;2023-11-19T10:33:53;17.43;;;4.00;;
2756;SDS011;1386;50.862;6.494;2023-11-19T10:36:21;14.73;;;4.00;;
2756;SDS011;1386;50.862;6.494;2023-11-19T10:38:55;10.80;;;3.80;;
2756;SDS011;1386;50.862;6.494;2023-11-19T10:41:28;16.73;;;4.20;;
2756;SDS011;1386;50.862;6.494;2023-11-19T10:43:59;9.37;;;3.27;;
2756;SDS011;1386;50.862;6.494;2023-11-19T10:46:35;14.40;;;4.23;;
2756;SDS011;1386;50.862;6.494;2023-11-19T10:49:04;16.13;;;4.63;;
2756;SDS011;1386;50.862;6.494;2023-11-19T10:51:32;11.43;;;5.10;;
2756;SDS011;1386;50.862;6.494;2023-11-19T10:54:00;18.20;;;3.73;;
2756;SDS011;1386;50.862;6.494;2023-11-19T10:56:32;13.80;;;3.70;;
2756;SDS011;1386;50.862;6.494;2023-11-19T10:58:59;13.93;;;3.90;;
2756;SDS011;1386;50.862;6.494;2023-11-19T11:01:33;11.73;;;3.87;;
2756;SDS011;1386;50.862;6.494;2023-11-19T11:04:07;9.33;;;3.50;;
2756;SDS011;1386;50.862;6.494;2023-11-19T11:06:39;17.43;;;4.40;;
2756;SDS011;1386;50.862;6.494;2023-11-19T11:09:07;15.90;;;3.63;;
2756;SDS011;1386;50.862;6.494;2023-11-19T11:11:39;13.57;;;4.17;;
2756;SDS011;1386;50.862;6.494;2023-11-19T11:14:08;16.77;;;4.63;;
2756;SDS011;1386;50.862;6.494;2023-11-19T11:16:38;13.50;;;3.63;;
2756;SDS011;1386;50.862;6.494;2023-11-19T11:19:09;12.37;;;3.30;;
2756;SDS011;1386;50.862;6.494;2023-11-19T11:21:36;9.90;;;3.67;;
2756;SDS011;1386;50.862;6.494;2023-11-19T11:24:20;8.87;;;3.10;;
2756;SDS011;1386;50.862;6.494;2023-11-19T11:27:26;12.17;;;3.80;;
2756;SDS011;1386;50.862;6.494;2023-11-19T11:30:10;7.90;;;2.70;;
2756;SDS011;1386;50.862;6.494;2023-11-19T11:32:49;11.53;;;3.30;;
2756;SDS011;1386;50.862;6.494;2023-11-19T11:35:28;12.57;;;4.10;;
2756;SDS011;1386;50.862;6.494;2023-11-19T11:38:03;13.30;;;3.37;;
2756;SDS011;1386;50.862;6.494;2023-11-19T11:40:32;12.23;;;3.50;;
2756;SDS011;1386;50.862;6.494;2023-11-19T11:43:02;7.87;;;3.90;;
2756;SDS011;1386;50.862;6.494;2023-11-19T11:45:36;12.00;;;3.20;;
2756;SDS011;1386;50.862;6.494;2023-11-19T11:48:09;10.90;;;2.70;;
2756;SDS011;1386;50.862;6.494;2023-11-19T11:50:51;10.67;;;3.27;;
2756;SDS011;1386;50.862;6.494;2023-11-19T11:53:20;9.53;;;3.47;;
2756;SDS011;1386;50.862;6.494;2023-11-19T11:55:55;11.77;;;2.90;;
2756;SDS011;1386;50.862;6.494;2023-11-19T11:58:29;17.77;;;4.70;;
2756;SDS011;1386;50.862;6.494;2023-11-19T12:00:57;9.83;;;2.57;;
2756;SDS011;1386;50.862;6.494;2023-11-19T12:03:27;16.80;;;3.90;;
2756;SDS011;1386;50.862;6.494;2023-11-19T12:05:54;15.30;;;3.80;;
2756;SDS011;1386;50.862;6.494;2023-11-19T12:08:24;13.73;;;3.70;;
2756;SDS011;1386;50.862;6.494;2023-11-19T12:10:56;13.97;;;3.60;;
2756;SDS011;1386;50.862;6.494;2023-11-19T12:13:24;13.40;;;3.93;;
2756;SDS011;1386;50.862;6.494;2023-11-19T12:16:12;15.00;;;3.47;;
2756;SDS011;1386;50.862;6.494;2023-11-19T12:18:39;8.37;;;2.50;;
2756;SDS011;1386;50.862;6.494;2023-11-19T12:21:10;8.77;;;3.03;;
2756;SDS011;1386;50.862;6.494;2023-11-19T12:23:43;8.60;;;2.47;;
2756;SDS011;1386;50.862;6.494;2023-11-19T12:26:21;12.23;;;3.40;;
2756;SDS011;1386;50.862;6.494;2023-11-19T12:28:59;9.37;;;3.10;;
2756;SDS011;1386;50.862;6.494;2023-11-19T12:31:28;13.20;;;4.27;;
2756;SDS011;1386;50.862;6.494;2023-11-19T12:33:55;12.20;;;2.83;;
2756;SDS011;1386;50.862;6.494;2023-11-19T12:36:22;12.33;;;3.40;;
2756;SDS011;1386;50.862;6.494;2023-11-19T12:38:49;11.73;;;2.80;;
2756;SDS011;1386;50.862;6.494;2023-11-19T12:41:16;9.07;;;2.87;;
2756;SDS011;1386;50.862;6.494;2023-11-19T12:43:47;12.00;;;4.03;;
2756;SDS011;1386;50.862;6.494;2023-11-19T12:46:18;13.27;;;3.70;;
2756;SDS011;1386;50.862;6.494;2023-11-19T12:48:46;17.10;;;3.07;;
2756;SDS011;1386;50.862;6.494;2023-11-19T12:51:13;12.20;;;4.13;;
2756;SDS011;1386;50.862;6.494;2023-11-19T12:53:50;16.17;;;3.30;;
2756;SDS011;1386;50.862;6.494;2023-11-19T12:56:19;12.53;;;2.90;;
2756;SDS011;1386;50.862;6.494;2023-11-19T12:58:46;17.93;;;4.00;;
2756;SDS011;1386;50.862;6.494;2023-11-19T13:01:15;15.37;;;3.80;;
2756;SDS011;1386;50.862;6.494;2023-11-19T13:03:45;10.67;;;3.90;;
2756;SDS011;1386;50.862;6.494;2023-11-19T13:06:14;11.83;;;3.53;;
2756;SDS011;1386;50.862;6.494;2023-11-19T13:08:42;11.03;;;5.00;;
2756;SDS011;1386;50.862;6.494;2023-11-19T13:11:13;9.83;;;4.03;;
2756;SDS011;1386;50.862;6.494;2023-11-19T13:13:56;13.23;;;3.83;;
2756;SDS011;1386;50.862;6.494;2023-11-19T13:16:24;11.90;;;4.70;;
2756;SDS011;1386;50.862;6.494;2023-11-19T13:18:53;15.90;;;4.47;;
2756;SDS011;1386;50.862;6.494;2023-11-19T13:21:20;12.77;;;3.60;;
2756;SDS011;1386;50.862;6.494;2023-11-19T13:23:47;10.77;;;3.50;;
2756;SDS011;1386;50.862;6.494;2023-11-19T13:26:14;15.87;;;4.20;;
2756;SDS011;1386;50.862;6.494;2023-11-19T13:28:41;13.87;;;4.73;;
2756;SDS011;1386;50.862;6.494;2023-11-19T13:31:08;11.77;;;3.97;;
2756;SDS011;1386;50.862;6.494;2023-11-19T13:33:39;14.93;;;4.10;;
2756;SDS011;1386;50.862;6.494;2023-11-19T13:36:08;16.47;;;4.00;;
2756;SDS011;1386;50.862;6.494;2023-11-19T13:38:36;10.97;;;3.27;;
2756;SDS011;1386;50.862;6.494;2023-11-19T13:41:03;11.37;;;2.77;;
2756;SDS011;1386;50.862;6.494;2023-11-19T13:43:31;11.10;;;3.20;;
2756;SDS011;1386;50.862;6.494;2023-11-19T13:46:00;11.87;;;3.13;;
2756;SDS011;1386;50.862;6.494;2023-11-19T13:48:27;11.27;;;2.70;;
2756;SDS011;1386;50.862;6.494;2023-11-19T13:50:55;12.27;;;4.43;;
2756;SDS011;1386;50.862;6.494;2023-11-19T13:53:23;9.97;;;3.67;;
2756;SDS011;1386;50.862;6.494;2023-11-19T13:55:50;13.30;;;3.90;;
2756;SDS011;1386;50.862;6.494;2023-11-19T13:58:19;12.40;;;4.03;;
2756;SDS011;1386;50.862;6.494;2023-11-19T14:00:51;17.10;;;3.30;;
2756;SDS011;1386;50.862;6.494;2023-11-19T14:03:40;14.03;;;3.03;;
2756;SDS011;1386;50.862;6.494;2023-11-19T14:06:11;7.83;;;2.87;;
2756;SDS011;1386;50.862;6.494;2023-11-19T14:08:42;9.30;;;2.53;;
2756;SDS011;1386;50.862;6.494;2023-11-19T14:11:09;11.80;;;4.50;;
2756;SDS011;1386;50.862;6.494;2023-11-19T14:13:37;8.23;;;2.73;;
2756;SDS011;1386;50.862;6.494;2023-11-19T14:16:04;11.80;;;3.67;;
2756;SDS011;1386;50.862;6.494;2023-11-19T14:18:37;11.90;;;2.63;;
2756;SDS011;1386;50.862;6.494;2023-11-19T14:21:06;14.47;;;3.83;;
2756;SDS011;1386;50.862;6.494;2023-11-19T14:23:34;11.37;;;2.97;;
2756;SDS011;1386;50.862;6.494;2023-11-19T14:26:04;15.13;;;3.63;;
2756;SDS011;1386;50.862;6.494;2023-11-19T14:28:32;11.30;;;3.37;;
2756;SDS011;1386;50.862;6.494;2023-11-19T14:31:00;10.80;;;3.10;;
2756;SDS011;1386;50.862;6.494;2023-11-19T14:33:28;12.33;;;2.90;;
2756;SDS011;1386;50.862;6.494;2023-11-19T14:36:05;9.37;;;3.10;;
2756;SDS011;1386;50.862;6.494;2023-11-19T14:38:33;10.33;;;3.43;;
2756;SDS011;1386;50.862;6.494;2023-11-19T14:41:00;11.40;;;3.40;;
2756;SDS011;1386;50.862;6.494;2023-11-19T14:43:28;13.10;;;3.50;;
2756;SDS011;1386;50.862;6.494;2023-11-19T14:45:55;12.53;;;3.23;;
2756;SDS011;1386;50.862;6.494;2023-11-19T14:48:24;14.00;;;4.50;;
2756;SDS011;1386;50.862;6.494;2023-11-19T14:50:54;14.73;;;3.70;;
2756;SDS011;1386;50.862;6.494;2023-11-19T14:53:21;11.57;;;3.33;;
2756;SDS011;1386;50.862;6.494;2023-11-19T14:55:58;13.17;;;3.93;;
2756;SDS011;1386;50.862;6.494;2023-11-19T14:58:32;11.03;;;4.43;;
2756;SDS011;1386;50.862;6.494;2023-11-19T15:00:59;12.93;;;3.50;;
2756;SDS011;1386;50.862;6.494;2023-11-19T15:03:29;12.77;;;4.03;;
2756;SDS011;1386;50.862;6.494;2023-11-19T15:05:56;22.60;;;3.67;;
2756;SDS011;1386;50.862;6.494;2023-11-19T15:08:23;12.07;;;3.80;;
2756;SDS011;1386;50.862;6.494;2023-11-19T15:10:50;17.20;;;4.40;;
2756;SDS011;1386;50.862;6.494;2023-11-19T15:13:17;21.20;;;4.17;;
2756;SDS011;1386;50.862;6.494;2023-11-19T15:15:46;14.33;;;3.50;;
2756;SDS011;1386;50.862;6.494;2023-11-19T15:18:13;14.70;;;3.90;;
2756;SDS011;1386;50.862;6.494;2023-11-19T15:20:40;11.17;;;4.73;;
2756;SDS011;1386;50.862;6.494;2023-11-19T15:23:06;14.20;;;4.33;;
2756;SDS011;1386;50.862;6.494;2023-11-19T15:25:34;17.37;;;3.90;;
2756;SDS011;1386;50.862;6.494;2023-11-19T15:28:02;14.60;;;3.63;;
2756;SDS011;1386;50.862;6.494;2023-11-19T15:30:29;14.07;;;3.63;;
2756;SDS011;1386;50.862;6.494;2023-11-19T15:32:57;16.80;;;5.77;;
2756;SDS011;1386;50.862;6.494;2023-11-19T15:35:24;17.43;;;4.47;;
2756;SDS011;1386;50.862;6.494;2023-11-19T15:37:51;11.57;;;3.57;;
2756;SDS011;1386;50.862;6.494;2023-11-19T15:40:18;14.93;;;4.00;;
2756;SDS011;1386;50.862;6.494;2023-11-19T15:42:45;10.00;;;4.77;;
2756;SDS011;1386;50.862;6.494;2023-11-19T15:45:12;9.83;;;3.27;;
2756;SDS011;1386;50.862;6.494;2023-11-19T15:47:41;13.50;;;3.67;;
2756;SDS011;1386;50.862;6.494;2023-11-19T15:50:09;11.77;;;3.63;;
2756;SDS011;1386;50.862;6.494;2023-11-19T15:52:37;9.87;;;3.57;;
2756;SDS011;1386;50.862;6.494;2023-11-19T15:55:04;11.83;;;3.27;;
2756;SDS011;1386;50.862;6.494;2023-11-19T15:57:31;12.43;;;3.67;;
2756;SDS011;1386;50.862;6.494;2023-11-19T15:59:58;13.13;;;3.97;;
2756;SDS011;1386;50.862;6.494;2023-11-19T16:02:25;12.07;;;4.27;;
2756;SDS011;1386;50.862;6.494;2023-11-19T16:04:52;10.57;;;3.63;;
2756;SDS011;1386;50.862;6.494;2023-11-19T16:07:20;22.43;;;5.00;;
2756;SDS011;1386;50.862;6.494;2023-11-19T16:09:47;12.43;;;3.90;;
2756;SDS011;1386;50.862;6.494;2023-11-19T16:12:14;16.03;;;5.03;;
2756;SDS011;1386;50.862;6.494;2023-11-19T16:14:41;18.30;;;5.07;;
2756;SDS011;1386;50.862;6.494;2023-11-19T16:17:07;10.87;;;3.53;;
2756;SDS011;1386;50.862;6.494;2023-11-19T16:19:34;15.50;;;3.80;;
2756;SDS011;1386;50.862;6.494;2023-11-19T16:22:01;14.27;;;5.67;;
2756;SDS011;1386;50.862;6.494;2023-11-19T16:24:36;15.13;;;4.57;;
2756;SDS011;1386;50.862;6.494;2023-11-19T16:27:03;15.37;;;4.27;;
2756;SDS011;1386;50.862;6.494;2023-11-19T16:29:30;21.20;;;5.30;;
2756;SDS011;1386;50.862;6.494;2023-11-19T16:31:59;14.60;;;3.50;;
2756;SDS011;1386;50.862;6.494;2023-11-19T16:34:26;19.57;;;4.80;;
2756;SDS011;1386;50.862;6.494;2023-11-19T16:36:53;11.03;;;3.80;;
2756;SDS011;1386;50.862;6.494;2023-11-19T16:39:20;11.57;;;4.27;;
2756;SDS011;1386;50.862;6.494;2023-11-19T16:41:48;19.17;;;6.00;;
2756;SDS011;1386;50.862;6.494;2023-11-19T16:44:15;8.20;;;4.17;;
2756;SDS011;1386;50.862;6.494;2023-11-19T16:46:42;13.97;;;4.17;;
2756;SDS011;1386;50.862;6.494;2023-11-19T16:49:09;12.07;;;3.80;;
2756;SDS011;1386;50.862;6.494;2023-11-19T16:51:36;14.20;;;3.63;;
2756;SDS011;1386;50.862;6.494;2023-11-19T16:54:03;9.53;;;3.37;;
2756;SDS011;1386;50.862;6.494;2023-11-19T16:56:30;18.83;;;4.10;;
2756;SDS011;1386;50.862;6.494;2023-11-19T16:58:59;13.47;;;3.20;;
2756;SDS011;1386;50.862;6.494;2023-11-19T17:01:25;14.30;;;4.03;;
2756;SDS011;1386;50.862;6.494;2023-11-19T17:03:52;15.67;;;3.67;;
2756;SDS011;1386;50.862;6.494;2023-11-19T17:06:19;17.03;;;4.70;;
2756;SDS011;1386;50.862;6.494;2023-11-19T17:08:46;12.80;;;3.93;;
2756;SDS011;1386;50.862;6.494;2023-11-19T17:11:13;14.90;;;4.60;;
2756;SDS011;1386;50.862;6.494;2023-11-19T17:13:40;14.47;;;4.57;;
2756;SDS011;1386;50.862;6.494;2023-11-19T17:16:08;10.83;;;3.60;;
2756;SDS011;1386;50.862;6.494;2023-11-19T17:18:35;14.67;;;3.97;;
2756;SDS011;1386;50.862;6.494;2023-11-19T17:21:04;12.80;;;3.27;;
2756;SDS011;1386;50.862;6.494;2023-11-19T17:23:31;11.67;;;3.27;;
2756;SDS011;1386;50.862;6.494;2023-11-19T17:25:58;12.10;;;3.20;;
2756;SDS011;1386;50.862;6.494;2023-11-19T17:28:25;16.17;;;4.37;;
2756;SDS011;1386;50.862;6.494;2023-11-19T17:30:52;15.90;;;4.57;;
2756;SDS011;1386;50.862;6.494;2023-11-19T17:33:21;9.53;;;4.03;;
2756;SDS011;1386;50.862;6.494;2023-11-19T17:35:48;15.33;;;3.63;;
2756;SDS011;1386;50.862;6.494;2023-11-19T17:38:15;10.43;;;3.00;;
2756;SDS011;1386;50.862;6.494;2023-11-19T17:40:42;7.43;;;3.20;;
2756;SDS011;1386;50.862;6.494;2023-11-19T17:43:09;9.40;;;3.33;;
2756;SDS011;1386;50.862;6.494;2023-11-19T17:45:36;12.83;;;3.97;;
2756;SDS011;1386;50.862;6.494;2023-11-19T17:48:05;21.20;;;5.23;;
2756;SDS011;1386;50.862;6.494;2023-11-19T17:50:33;12.77;;;3.80;;
2756;SDS011;1386;50.862;6.494;2023-11-19T17:53:00;16.33;;;4.40;;
2756;SDS011;1386;50.862;6.494;2023-11-19T17:55:28;10.10;;;3.27;;
2756;SDS011;1386;50.862;6.494;2023-11-19T17:57:58;12.40;;;3.20;;
2756;SDS011;1386;50.862;6.494;2023-11-19T18:00:24;15.63;;;3.13;;
2756;SDS011;1386;50.862;6.494;2023-11-19T18:02:52;14.30;;;3.90;;
2756;SDS011;1386;50.862;6.494;2023-11-19T18:05:19;15.73;;;3.57;;
2756;SDS011;1386;50.862;6.494;2023-11-19T18:07:48;13.57;;;3.80;;
2756;SDS011;1386;50.862;6.494;2023-11-19T18:10:14;11.70;;;3.37;;
2756;SDS011;1386;50.862;6.494;2023-11-19T18:12:42;10.80;;;2.90;;
2756;SDS011;1386;50.862;6.494;2023-11-19T18:15:10;10.57;;;3.30;;
2756;SDS011;1386;50.862;6.494;2023-11-19T18:17:38;9.83;;;3.40;;
2756;SDS011;1386;50.862;6.494;2023-11-19T20:58:11;7.60;;;3.13;;
2756;SDS011;1386;50.862;6.494;2023-11-19T21:00:41;7.13;;;2.23;;
2756;SDS011;1386;50.862;6.494;2023-11-19T21:03:09;6.87;;;2.20;;
2756;SDS011;1386;50.862;6.494;2023-11-19T21:05:48;11.47;;;2.77;;
2756;SDS011;1386;50.862;6.494;2023-11-19T21:08:49;11.80;;;2.77;;
2756;SDS011;1386;50.862;6.494;2023-11-19T21:11:17;8.97;;;2.70;;
2756;SDS011;1386;50.862;6.494;2023-11-19T21:13:48;7.03;;;2.20;;
2756;SDS011;1386;50.862;6.494;2023-11-19T21:16:19;6.17;;;2.27;;
2756;SDS011;1386;50.862;6.494;2023-11-19T21:18:46;12.17;;;2.70;;
2756;SDS011;1386;50.862;6.494;2023-11-19T21:21:16;9.70;;;2.60;;
2756;SDS011;1386;50.862;6.494;2023-11-19T21:23:45;6.93;;;2.70;;
2756;SDS011;1386;50.862;6.494;2023-11-19T21:26:18;4.00;;;2.37;;
2756;SDS011;1386;50.862;6.494;2023-11-19T21:28:49;7.87;;;2.47;;
2756;SDS011;1386;50.862;6.494;2023-11-19T21:31:17;9.33;;;2.93;;
2756;SDS011;1386;50.862;6.494;2023-11-19T21:33:46;7.10;;;2.70;;
2756;SDS011;1386;50.862;6.494;2023-11-19T21:36:13;8.27;;;2.57;;
2756;SDS011;1386;50.862;6.494;2023-11-19T21:38:43;6.90;;;2.30;;
2756;SDS011;1386;50.862;6.494;2023-11-19T21:41:15;11.67;;;3.03;;
2756;SDS011;1386;50.862;6.494;2023-11-19T21:46:39;7.57;;;2.63;;
2756;SDS011;1386;50.862;6.494;2023-11-19T21:49:18;12.27;;;2.57;;
2756;SDS011;1386;50.862;6.494;2023-11-19T21:51:45;6.40;;;2.70;;
2756;SDS011;1386;50.862;6.494;2023-11-19T21:54:15;5.27;;;2.20;;
2756;SDS011;1386;50.862;6.494;2023-11-19T21:56:48;8.53;;;2.40;;
2756;SDS011;1386;50.862;6.494;2023-11-19T22:02:06;4.63;;;2.30;;
2756;SDS011;1386;50.862;6.494;2023-11-19T22:04:36;6.67;;;2.40;;
2756;SDS011;1386;50.862;6.494;2023-11-19T22:07:03;5.90;;;1.60;;
2756;SDS011;1386;50.862;6.494;2023-11-19T22:09:33;8.20;;;2.60;;
2756;SDS011;1386;50.862;6.494;2023-11-19T22:12:02;6.50;;;2.10;;
2756;SDS011;1386;50.862;6.494;2023-11-19T22:14:30;5.73;;;1.90;;
2756;SDS011;1386;50.862;6.494;2023-11-19T22:17:09;5.47;;;1.60;;
2756;SDS011;1386;50.862;6.494;2023-11-19T22:19:38;3.40;;;2.00;;
2756;SDS011;1386;50.862;6.494;2023-11-19T22:22:05;4.23;;;2.37;;
2756;SDS011;1386;50.862;6.494;2023-11-19T22:24:34;4.10;;;1.80;;
2756;SDS011;1386;50.862;6.494;2023-11-19T22:27:03;6.33;;;2.20;;
2756;SDS011;1386;50.862;6.494;2023-11-19T22:29:30;4.83;;;2.30;;
2756;SDS011;1386;50.862;6.494;2023-11-19T22:31:58;7.97;;;2.17;;
2756;SDS011;1386;50.862;6.494;2023-11-19T22:34:26;4.07;;;2.00;;
2756;SDS011;1386;50.862;6.494;2023-11-19T22:36:53;6.47;;;2.30;;
2756;SDS011;1386;50.862;6.494;2023-11-19T22:39:24;8.53;;;1.80;;
2756;SDS011;1386;50.862;6.494;2023-11-19T22:41:57;4.03;;;1.70;;
2756;SDS011;1386;50.862;6.494;2023-11-19T22:44:26;4.13;;;2.50;;
2756;SDS011;1386;50.862;6.494;2023-11-19T22:46:55;3.87;;;2.00;;
2756;SDS011;1386;50.862;6.494;2023-11-19T22:49:30;6.40;;;2.00;;
2756;SDS011;1386;50.862;6.494;2023-11-19T22:51:57;3.93;;;2.10;;
2756;SDS011;1386;50.862;6.494;2023-11-19T22:54:27;6.87;;;1.93;;
2756;SDS011;1386;50.862;6.494;2023-11-19T22:56:56;6.20;;;2.23;;
2756;SDS011;1386;50.862;6.494;2023-11-19T22:59:23;5.07;;;2.30;;
2756;SDS011;1386;50.862;6.494;2023-11-19T23:01:55;5.23;;;2.43;;
2756;SDS011;1386;50.862;6.494;2023-11-19T23:04:22;3.60;;;2.00;;
2756;SDS011;1386;50.862;6.494;2023-11-19T23:06:55;13.33;;;3.10;;
2756;SDS011;1386;50.862;6.494;2023-11-19T23:09:22;9.47;;;2.23;;
